sensor_id;sensor_type;location;lat;lon;timestamp;temperature;humidity
7564;DHT22;3823;53.586;10.040;2022-07-29T00:00:39;15.40;25.90
7564;DHT22;3823;53.586;10.040;2022-07-29T00:03:04;15.30;26.00
7564;DHT22;3823;53.586;10.040;2022-07-29T00:05:30;15.30;26.50
7564;DHT22;3823;53.586;10.040;2022-07-29T00:07:56;15.40;26.40
7564;DHT22;3823;53.586;10.040;2022-07-29T00:10:21;15.40;26.20
7564;DHT22;3823;53.586;10.040;2022-07-29T00:12:47;15.30;25.90
7564;DHT22;3823;53.586;10.040;2022-07-29T00:15:13;15.30;26.30
7564;DHT22;3823;53.586;10.040;2022-07-29T00:17:39;15.30;26.40
7564;DHT22;3823;53.586;10.040;2022-07-29T00:20:05;15.30;26.10
7564;DHT22;3823;53.586;10.040;2022-07-29T00:22:31;15.30;26.10
7564;DHT22;3823;53.586;10.040;2022-07-29T00:24:56;15.40;25.60
7564;DHT22;3823;53.586;10.040;2022-07-29T00:27:22;15.30;26.30
7564;DHT22;3823;53.586;10.040;2022-07-29T00:29:47;15.40;26.40
7564;DHT22;3823;53.586;10.040;2022-07-29T00:32:13;15.30;26.20
7564;DHT22;3823;53.586;10.040;2022-07-29T00:34:39;15.30;26.10
7564;DHT22;3823;53.586;10.040;2022-07-29T00:37:23;15.30;26.20
7564;DHT22;3823;53.586;10.040;2022-07-29T00:39:48;15.20;25.80
7564;DHT22;3823;53.586;10.040;2022-07-29T00:42:14;15.10;26.20
7564;DHT22;3823;53.586;10.040;2022-07-29T00:44:41;15.00;27.70
7564;DHT22;3823;53.586;10.040;2022-07-29T00:47:08;15.00;27.00
7564;DHT22;3823;53.586;10.040;2022-07-29T00:49:34;15.10;27.10
7564;DHT22;3823;53.586;10.040;2022-07-29T00:52:06;15.00;27.20
7564;DHT22;3823;53.586;10.040;2022-07-29T00:54:33;15.10;27.20
7564;DHT22;3823;53.586;10.040;2022-07-29T00:56:59;15.20;26.90
7564;DHT22;3823;53.586;10.040;2022-07-29T00:59:26;15.20;27.30
7564;DHT22;3823;53.586;10.040;2022-07-29T01:01:52;15.30;26.30
7564;DHT22;3823;53.586;10.040;2022-07-29T01:04:19;15.20;25.90
7564;DHT22;3823;53.586;10.040;2022-07-29T01:06:45;15.20;26.50
7564;DHT22;3823;53.586;10.040;2022-07-29T01:09:12;15.20;26.90
7564;DHT22;3823;53.586;10.040;2022-07-29T01:11:38;15.10;26.50
7564;DHT22;3823;53.586;10.040;2022-07-29T01:14:07;15.10;26.00
7564;DHT22;3823;53.586;10.040;2022-07-29T01:19:47;15.00;26.10
7564;DHT22;3823;53.586;10.040;2022-07-29T01:22:28;15.00;25.90
7564;DHT22;3823;53.586;10.040;2022-07-29T01:29:49;14.90;26.70
7564;DHT22;3823;53.586;10.040;2022-07-29T01:32:20;14.80;26.50
7564;DHT22;3823;53.586;10.040;2022-07-29T01:40:27;14.70;27.00
7564;DHT22;3823;53.586;10.040;2022-07-29T01:42:58;14.60;27.80
7564;DHT22;3823;53.586;10.040;2022-07-29T01:45:33;14.60;27.40
7564;DHT22;3823;53.586;10.040;2022-07-29T01:48:09;14.60;27.50
7564;DHT22;3823;53.586;10.040;2022-07-29T01:50:40;14.70;27.30
7564;DHT22;3823;53.586;10.040;2022-07-29T01:53:09;14.80;27.10
7564;DHT22;3823;53.586;10.040;2022-07-29T01:55:39;14.80;27.50
7564;DHT22;3823;53.586;10.040;2022-07-29T01:58:06;14.70;27.30
7564;DHT22;3823;53.586;10.040;2022-07-29T02:00:34;14.60;27.70
7564;DHT22;3823;53.586;10.040;2022-07-29T02:03:07;14.70;27.70
7564;DHT22;3823;53.586;10.040;2022-07-29T02:05:35;14.60;28.30
7564;DHT22;3823;53.586;10.040;2022-07-29T02:08:04;14.60;28.20
7564;DHT22;3823;53.586;10.040;2022-07-29T02:10:33;14.70;28.50
7564;DHT22;3823;53.586;10.040;2022-07-29T02:12:59;14.70;28.30
7564;DHT22;3823;53.586;10.040;2022-07-29T02:15:28;14.60;28.60
7564;DHT22;3823;53.586;10.040;2022-07-29T02:18:17;14.70;28.50
7564;DHT22;3823;53.586;10.040;2022-07-29T02:20:45;14.60;28.40
7564;DHT22;3823;53.586;10.040;2022-07-29T02:23:15;14.60;29.30
7564;DHT22;3823;53.586;10.040;2022-07-29T02:25:43;14.50;29.10
7564;DHT22;3823;53.586;10.040;2022-07-29T02:28:09;14.50;29.40
7564;DHT22;3823;53.586;10.040;2022-07-29T02:30:40;14.60;29.60
7564;DHT22;3823;53.586;10.040;2022-07-29T02:33:08;14.60;29.70
7564;DHT22;3823;53.586;10.040;2022-07-29T02:35:35;14.50;29.50
7564;DHT22;3823;53.586;10.040;2022-07-29T02:38:02;14.50;29.50
7564;DHT22;3823;53.586;10.040;2022-07-29T02:40:46;14.50;29.70
7564;DHT22;3823;53.586;10.040;2022-07-29T02:43:14;14.40;30.00
7564;DHT22;3823;53.586;10.040;2022-07-29T02:45:40;14.40;30.90
7564;DHT22;3823;53.586;10.040;2022-07-29T02:48:10;14.40;30.70
7564;DHT22;3823;53.586;10.040;2022-07-29T02:50:44;14.40;30.50
7564;DHT22;3823;53.586;10.040;2022-07-29T02:53:19;14.40;31.00
7564;DHT22;3823;53.586;10.040;2022-07-29T02:55:51;14.40;30.80
7564;DHT22;3823;53.586;10.040;2022-07-29T02:58:33;14.30;31.60
7564;DHT22;3823;53.586;10.040;2022-07-29T03:01:16;14.30;31.90
7564;DHT22;3823;53.586;10.040;2022-07-29T03:03:46;14.30;32.20
7564;DHT22;3823;53.586;10.040;2022-07-29T03:06:14;14.30;32.20
7564;DHT22;3823;53.586;10.040;2022-07-29T03:08:41;14.40;32.30
7564;DHT22;3823;53.586;10.040;2022-07-29T03:11:08;14.40;31.80
7564;DHT22;3823;53.586;10.040;2022-07-29T03:13:35;14.50;32.10
7564;DHT22;3823;53.586;10.040;2022-07-29T03:16:01;14.50;31.50
7564;DHT22;3823;53.586;10.040;2022-07-29T03:18:27;14.50;31.20
7564;DHT22;3823;53.586;10.040;2022-07-29T03:20:53;14.40;31.70
7564;DHT22;3823;53.586;10.040;2022-07-29T03:23:23;14.30;32.40
7564;DHT22;3823;53.586;10.040;2022-07-29T03:25:53;14.30;33.60
7564;DHT22;3823;53.586;10.040;2022-07-29T03:28:19;14.40;32.70
7564;DHT22;3823;53.586;10.040;2022-07-29T03:30:45;14.30;32.70
7564;DHT22;3823;53.586;10.040;2022-07-29T03:33:11;14.30;32.90
7564;DHT22;3823;53.586;10.040;2022-07-29T03:35:37;14.30;33.20
7564;DHT22;3823;53.586;10.040;2022-07-29T03:38:03;14.40;32.90
7564;DHT22;3823;53.586;10.040;2022-07-29T03:40:51;14.40;32.20
7564;DHT22;3823;53.586;10.040;2022-07-29T03:43:18;14.40;32.50
7564;DHT22;3823;53.586;10.040;2022-07-29T03:45:47;14.40;32.60
7564;DHT22;3823;53.586;10.040;2022-07-29T03:48:16;14.30;33.00
7564;DHT22;3823;53.586;10.040;2022-07-29T03:50:43;14.30;33.90
7564;DHT22;3823;53.586;10.040;2022-07-29T03:53:09;14.30;33.80
7564;DHT22;3823;53.586;10.040;2022-07-29T03:55:47;14.40;33.40
7564;DHT22;3823;53.586;10.040;2022-07-29T03:58:14;14.50;33.50
7564;DHT22;3823;53.586;10.040;2022-07-29T04:00:42;14.50;33.30
7564;DHT22;3823;53.586;10.040;2022-07-29T04:03:08;14.50;32.80
7564;DHT22;3823;53.586;10.040;2022-07-29T04:05:34;14.50;33.00
7564;DHT22;3823;53.586;10.040;2022-07-29T04:08:00;14.60;32.50
7564;DHT22;3823;53.586;10.040;2022-07-29T04:10:25;14.50;32.60
7564;DHT22;3823;53.586;10.040;2022-07-29T04:12:51;14.60;32.80
7564;DHT22;3823;53.586;10.040;2022-07-29T04:15:17;14.60;33.40
7564;DHT22;3823;53.586;10.040;2022-07-29T04:17:43;14.60;31.80
7564;DHT22;3823;53.586;10.040;2022-07-29T04:20:09;14.60;31.80
7564;DHT22;3823;53.586;10.040;2022-07-29T04:22:37;14.50;32.40
7564;DHT22;3823;53.586;10.040;2022-07-29T04:25:03;14.60;33.00
7564;DHT22;3823;53.586;10.040;2022-07-29T04:27:29;14.60;32.50
7564;DHT22;3823;53.586;10.040;2022-07-29T04:29:54;14.60;31.80
7564;DHT22;3823;53.586;10.040;2022-07-29T04:32:20;14.70;32.00
7564;DHT22;3823;53.586;10.040;2022-07-29T04:34:46;14.80;32.00
7564;DHT22;3823;53.586;10.040;2022-07-29T04:37:12;14.80;31.70
7564;DHT22;3823;53.586;10.040;2022-07-29T04:39:37;14.80;31.80
7564;DHT22;3823;53.586;10.040;2022-07-29T04:42:03;14.80;31.60
7564;DHT22;3823;53.586;10.040;2022-07-29T04:44:29;14.90;31.90
7564;DHT22;3823;53.586;10.040;2022-07-29T04:46:55;14.90;31.40
7564;DHT22;3823;53.586;10.040;2022-07-29T04:49:21;14.90;31.50
7564;DHT22;3823;53.586;10.040;2022-07-29T04:51:46;15.00;31.00
7564;DHT22;3823;53.586;10.040;2022-07-29T04:54:12;15.00;30.90
7564;DHT22;3823;53.586;10.040;2022-07-29T04:56:37;15.00;30.80
7564;DHT22;3823;53.586;10.040;2022-07-29T04:59:03;15.10;31.00
7564;DHT22;3823;53.586;10.040;2022-07-29T05:01:28;15.20;29.90
7564;DHT22;3823;53.586;10.040;2022-07-29T05:03:54;15.20;30.00
7564;DHT22;3823;53.586;10.040;2022-07-29T05:06:20;15.20;30.20
7564;DHT22;3823;53.586;10.040;2022-07-29T05:08:45;15.20;29.90
7564;DHT22;3823;53.586;10.040;2022-07-29T05:11:11;15.10;30.80
7564;DHT22;3823;53.586;10.040;2022-07-29T05:13:37;15.00;31.70
7564;DHT22;3823;53.586;10.040;2022-07-29T05:16:02;15.10;31.80
7564;DHT22;3823;53.586;10.040;2022-07-29T05:18:28;15.20;31.60
7564;DHT22;3823;53.586;10.040;2022-07-29T05:20:53;15.30;30.30
7564;DHT22;3823;53.586;10.040;2022-07-29T05:23:19;15.30;29.90
7564;DHT22;3823;53.586;10.040;2022-07-29T05:25:45;15.30;30.80
7564;DHT22;3823;53.586;10.040;2022-07-29T05:28:11;15.40;30.80
7564;DHT22;3823;53.586;10.040;2022-07-29T05:30:37;15.50;30.40
7564;DHT22;3823;53.586;10.040;2022-07-29T05:33:03;15.60;29.50
7564;DHT22;3823;53.586;10.040;2022-07-29T05:35:28;15.70;30.30
7564;DHT22;3823;53.586;10.040;2022-07-29T05:37:54;15.80;29.30
7564;DHT22;3823;53.586;10.040;2022-07-29T05:40:19;15.80;28.80
7564;DHT22;3823;53.586;10.040;2022-07-29T05:42:45;15.70;29.40
7564;DHT22;3823;53.586;10.040;2022-07-29T05:45:11;15.60;29.70
7564;DHT22;3823;53.586;10.040;2022-07-29T05:47:37;15.60;29.80
7564;DHT22;3823;53.586;10.040;2022-07-29T05:50:03;15.70;30.40
7564;DHT22;3823;53.586;10.040;2022-07-29T05:52:29;15.90;30.00
7564;DHT22;3823;53.586;10.040;2022-07-29T05:54:55;16.00;29.20
7564;DHT22;3823;53.586;10.040;2022-07-29T05:57:23;16.00;29.40
7564;DHT22;3823;53.586;10.040;2022-07-29T05:59:49;16.10;28.90
7564;DHT22;3823;53.586;10.040;2022-07-29T06:02:15;16.30;28.70
7564;DHT22;3823;53.586;10.040;2022-07-29T06:04:41;16.40;28.40
7564;DHT22;3823;53.586;10.040;2022-07-29T06:07:07;16.60;27.60
7564;DHT22;3823;53.586;10.040;2022-07-29T06:09:33;16.80;26.90
7564;DHT22;3823;53.586;10.040;2022-07-29T06:11:59;17.00;26.40
7564;DHT22;3823;53.586;10.040;2022-07-29T06:14:25;17.10;26.80
7564;DHT22;3823;53.586;10.040;2022-07-29T06:16:52;17.20;26.30
7564;DHT22;3823;53.586;10.040;2022-07-29T06:19:18;17.10;25.60
7564;DHT22;3823;53.586;10.040;2022-07-29T06:21:44;17.10;25.40
7564;DHT22;3823;53.586;10.040;2022-07-29T06:24:14;17.30;26.10
7564;DHT22;3823;53.586;10.040;2022-07-29T06:26:40;17.40;25.30
7564;DHT22;3823;53.586;10.040;2022-07-29T06:29:06;17.50;24.30
7564;DHT22;3823;53.586;10.040;2022-07-29T06:31:32;17.80;24.90
7564;DHT22;3823;53.586;10.040;2022-07-29T06:33:58;17.90;24.20
7564;DHT22;3823;53.586;10.040;2022-07-29T06:36:23;18.00;23.30
7564;DHT22;3823;53.586;10.040;2022-07-29T06:38:49;18.20;23.30
7564;DHT22;3823;53.586;10.040;2022-07-29T06:41:14;18.30;22.80
7564;DHT22;3823;53.586;10.040;2022-07-29T06:43:42;18.30;22.30
7564;DHT22;3823;53.586;10.040;2022-07-29T06:46:11;18.30;23.10
7564;DHT22;3823;53.586;10.040;2022-07-29T06:48:38;18.40;23.20
7564;DHT22;3823;53.586;10.040;2022-07-29T06:51:05;18.60;22.60
7564;DHT22;3823;53.586;10.040;2022-07-29T06:53:31;18.70;21.40
7564;DHT22;3823;53.586;10.040;2022-07-29T06:55:58;18.80;22.00
7564;DHT22;3823;53.586;10.040;2022-07-29T06:58:24;18.90;21.80
7564;DHT22;3823;53.586;10.040;2022-07-29T07:00:50;19.00;20.30
7564;DHT22;3823;53.586;10.040;2022-07-29T07:03:17;18.90;21.10
7564;DHT22;3823;53.586;10.040;2022-07-29T07:05:43;18.90;20.20
7564;DHT22;3823;53.586;10.040;2022-07-29T07:08:09;18.90;20.40
7564;DHT22;3823;53.586;10.040;2022-07-29T07:10:35;18.90;20.80
7564;DHT22;3823;53.586;10.040;2022-07-29T07:13:01;18.70;21.10
7564;DHT22;3823;53.586;10.040;2022-07-29T07:15:28;18.70;20.80
7564;DHT22;3823;53.586;10.040;2022-07-29T07:17:53;18.90;21.40
7564;DHT22;3823;53.586;10.040;2022-07-29T07:20:19;19.00;20.60
7564;DHT22;3823;53.586;10.040;2022-07-29T07:22:45;19.10;20.60
7564;DHT22;3823;53.586;10.040;2022-07-29T07:25:11;19.10;20.10
7564;DHT22;3823;53.586;10.040;2022-07-29T07:27:38;19.10;20.40
7564;DHT22;3823;53.586;10.040;2022-07-29T07:30:05;19.20;19.90
7564;DHT22;3823;53.586;10.040;2022-07-29T07:32:32;19.30;19.60
7564;DHT22;3823;53.586;10.040;2022-07-29T07:34:57;19.20;20.60
7564;DHT22;3823;53.586;10.040;2022-07-29T07:37:24;19.30;20.30
7564;DHT22;3823;53.586;10.040;2022-07-29T07:39:51;19.30;20.80
7564;DHT22;3823;53.586;10.040;2022-07-29T07:42:17;19.30;19.50
7564;DHT22;3823;53.586;10.040;2022-07-29T07:44:43;19.30;19.90
7564;DHT22;3823;53.586;10.040;2022-07-29T07:47:14;19.30;19.80
7564;DHT22;3823;53.586;10.040;2022-07-29T07:49:39;19.40;19.90
7564;DHT22;3823;53.586;10.040;2022-07-29T07:52:05;19.50;19.50
7564;DHT22;3823;53.586;10.040;2022-07-29T07:54:31;19.60;19.20
7564;DHT22;3823;53.586;10.040;2022-07-29T07:56:57;19.60;18.60
7564;DHT22;3823;53.586;10.040;2022-07-29T07:59:22;19.70;19.30
7564;DHT22;3823;53.586;10.040;2022-07-29T08:01:49;19.80;18.70
7564;DHT22;3823;53.586;10.040;2022-07-29T08:04:14;19.90;18.70
7564;DHT22;3823;53.586;10.040;2022-07-29T08:06:40;20.10;18.00
7564;DHT22;3823;53.586;10.040;2022-07-29T08:09:06;20.20;17.40
7564;DHT22;3823;53.586;10.040;2022-07-29T08:11:32;20.30;17.60
7564;DHT22;3823;53.586;10.040;2022-07-29T08:13:57;20.30;17.40
7564;DHT22;3823;53.586;10.040;2022-07-29T08:16:23;20.40;16.80
7564;DHT22;3823;53.586;10.040;2022-07-29T08:18:51;20.50;16.60
7564;DHT22;3823;53.586;10.040;2022-07-29T08:21:17;20.70;16.50
7564;DHT22;3823;53.586;10.040;2022-07-29T08:23:44;20.80;15.90
7564;DHT22;3823;53.586;10.040;2022-07-29T08:26:13;20.90;16.20
7564;DHT22;3823;53.586;10.040;2022-07-29T08:28:43;21.20;15.00
7564;DHT22;3823;53.586;10.040;2022-07-29T08:31:11;21.50;14.60
7564;DHT22;3823;53.586;10.040;2022-07-29T08:33:37;21.60;14.50
7564;DHT22;3823;53.586;10.040;2022-07-29T08:36:03;21.70;15.40
7564;DHT22;3823;53.586;10.040;2022-07-29T08:38:28;22.00;14.30
7564;DHT22;3823;53.586;10.040;2022-07-29T08:40:54;22.20;13.60
7564;DHT22;3823;53.586;10.040;2022-07-29T08:43:20;22.40;12.20
7564;DHT22;3823;53.586;10.040;2022-07-29T08:45:48;22.50;12.50
7564;DHT22;3823;53.586;10.040;2022-07-29T08:48:18;22.20;12.20
7564;DHT22;3823;53.586;10.040;2022-07-29T08:50:45;22.40;12.30
7564;DHT22;3823;53.586;10.040;2022-07-29T08:53:13;22.60;11.90
7564;DHT22;3823;53.586;10.040;2022-07-29T08:55:41;23.00;11.20
7564;DHT22;3823;53.586;10.040;2022-07-29T08:58:09;23.20;11.10
7564;DHT22;3823;53.586;10.040;2022-07-29T09:00:36;23.00;9.80
7564;DHT22;3823;53.586;10.040;2022-07-29T09:03:04;23.00;10.10
7564;DHT22;3823;53.586;10.040;2022-07-29T09:05:32;22.80;10.60
7564;DHT22;3823;53.586;10.040;2022-07-29T09:07:59;23.20;10.60
7564;DHT22;3823;53.586;10.040;2022-07-29T09:10:25;23.60;10.30
7564;DHT22;3823;53.586;10.040;2022-07-29T09:12:51;24.00;9.60
7564;DHT22;3823;53.586;10.040;2022-07-29T09:15:17;24.00;8.50
7564;DHT22;3823;53.586;10.040;2022-07-29T09:17:48;24.30;7.40
7564;DHT22;3823;53.586;10.040;2022-07-29T09:20:17;24.40;6.90
7564;DHT22;3823;53.586;10.040;2022-07-29T09:22:43;24.40;7.00
7564;DHT22;3823;53.586;10.040;2022-07-29T09:25:11;24.30;7.00
7564;DHT22;3823;53.586;10.040;2022-07-29T09:27:37;24.50;6.70
7564;DHT22;3823;53.586;10.040;2022-07-29T09:30:05;24.40;6.50
7564;DHT22;3823;53.586;10.040;2022-07-29T09:32:32;24.40;6.90
7564;DHT22;3823;53.586;10.040;2022-07-29T09:35:21;24.30;7.00
7564;DHT22;3823;53.586;10.040;2022-07-29T09:37:48;24.10;7.30
7564;DHT22;3823;53.586;10.040;2022-07-29T09:40:16;24.00;6.70
7564;DHT22;3823;53.586;10.040;2022-07-29T09:42:42;23.60;7.30
7564;DHT22;3823;53.586;10.040;2022-07-29T09:45:08;23.50;8.10
7564;DHT22;3823;53.586;10.040;2022-07-29T09:47:44;23.60;8.60
7564;DHT22;3823;53.586;10.040;2022-07-29T09:50:11;23.70;7.90
7564;DHT22;3823;53.586;10.040;2022-07-29T09:52:48;23.80;8.50
7564;DHT22;3823;53.586;10.040;2022-07-29T09:55:14;23.80;7.80
7564;DHT22;3823;53.586;10.040;2022-07-29T09:57:40;23.70;7.10
7564;DHT22;3823;53.586;10.040;2022-07-29T10:00:15;23.60;6.60
7564;DHT22;3823;53.586;10.040;2022-07-29T10:02:42;23.40;7.30
7564;DHT22;3823;53.586;10.040;2022-07-29T10:05:22;23.50;7.10
7564;DHT22;3823;53.586;10.040;2022-07-29T10:07:54;23.60;6.60
7564;DHT22;3823;53.586;10.040;2022-07-29T10:10:21;23.50;5.90
7564;DHT22;3823;53.586;10.040;2022-07-29T10:13:01;23.50;6.50
7564;DHT22;3823;53.586;10.040;2022-07-29T10:15:29;23.50;7.20
7564;DHT22;3823;53.586;10.040;2022-07-29T10:17:56;23.60;6.90
7564;DHT22;3823;53.586;10.040;2022-07-29T10:20:22;23.70;7.10
7564;DHT22;3823;53.586;10.040;2022-07-29T10:22:49;23.50;5.60
7564;DHT22;3823;53.586;10.040;2022-07-29T10:25:16;23.30;4.90
7564;DHT22;3823;53.586;10.040;2022-07-29T10:27:43;23.00;5.90
7564;DHT22;3823;53.586;10.040;2022-07-29T10:30:10;23.00;5.90
7564;DHT22;3823;53.586;10.040;2022-07-29T10:43:55;23.40;6.20
7564;DHT22;3823;53.586;10.040;2022-07-29T10:46:22;23.30;5.70
7564;DHT22;3823;53.586;10.040;2022-07-29T10:49:19;23.30;6.40
7564;DHT22;3823;53.586;10.040;2022-07-29T10:52:06;23.40;5.40
7564;DHT22;3823;53.586;10.040;2022-07-29T10:54:45;23.50;5.60
7564;DHT22;3823;53.586;10.040;2022-07-29T11:00:21;23.30;4.60
7564;DHT22;3823;53.586;10.040;2022-07-29T11:05:07;23.50;4.50
7564;DHT22;3823;53.586;10.040;2022-07-29T11:07:35;23.60;5.10
7564;DHT22;3823;53.586;10.040;2022-07-29T11:15:07;23.90;4.10
7564;DHT22;3823;53.586;10.040;2022-07-29T11:20:41;24.10;3.40
7564;DHT22;3823;53.586;10.040;2022-07-29T11:31:40;24.70;2.70
7564;DHT22;3823;53.586;10.040;2022-07-29T11:40:07;25.30;2.70
7564;DHT22;3823;53.586;10.040;2022-07-29T11:45:11;25.30;2.00
7564;DHT22;3823;53.586;10.040;2022-07-29T11:47:51;25.20;1.70
7564;DHT22;3823;53.586;10.040;2022-07-29T11:50:29;25.00;1.40
7564;DHT22;3823;53.586;10.040;2022-07-29T11:52:55;24.90;2.10
7564;DHT22;3823;53.586;10.040;2022-07-29T11:55:23;25.00;1.90
7564;DHT22;3823;53.586;10.040;2022-07-29T11:57:52;25.10;2.60
7564;DHT22;3823;53.586;10.040;2022-07-29T12:00:41;25.20;1.40
7564;DHT22;3823;53.586;10.040;2022-07-29T12:03:09;25.20;1.50
7564;DHT22;3823;53.586;10.040;2022-07-29T12:05:37;25.30;1.40
7564;DHT22;3823;53.586;10.040;2022-07-29T12:08:10;25.10;1.40
7564;DHT22;3823;53.586;10.040;2022-07-29T12:10:36;25.10;1.00
7564;DHT22;3823;53.586;10.040;2022-07-29T12:13:03;25.30;1.50
7564;DHT22;3823;53.586;10.040;2022-07-29T12:15:29;25.50;1.00
7564;DHT22;3823;53.586;10.040;2022-07-29T12:17:54;25.80;1.40
7564;DHT22;3823;53.586;10.040;2022-07-29T12:20:28;26.00;1.00
7564;DHT22;3823;53.586;10.040;2022-07-29T12:22:55;26.30;1.00
7564;DHT22;3823;53.586;10.040;2022-07-29T12:25:22;25.90;1.00
7564;DHT22;3823;53.586;10.040;2022-07-29T12:28:05;26.10;1.00
7564;DHT22;3823;53.586;10.040;2022-07-29T12:30:48;26.40;1.00
7564;DHT22;3823;53.586;10.040;2022-07-29T12:33:23;26.70;1.00
7564;DHT22;3823;53.586;10.040;2022-07-29T12:35:54;26.80;1.00
7564;DHT22;3823;53.586;10.040;2022-07-29T12:38:21;27.00;1.00
7564;DHT22;3823;53.586;10.040;2022-07-29T12:40:48;26.90;1.00
7564;DHT22;3823;53.586;10.040;2022-07-29T12:43:15;26.70;1.00
7564;DHT22;3823;53.586;10.040;2022-07-29T12:45:43;26.70;1.00
7564;DHT22;3823;53.586;10.040;2022-07-29T12:48:10;26.70;1.00
7564;DHT22;3823;53.586;10.040;2022-07-29T12:50:58;26.80;1.00
7564;DHT22;3823;53.586;10.040;2022-07-29T12:53:24;26.70;1.00
7564;DHT22;3823;53.586;10.040;2022-07-29T12:55:51;26.80;1.00
7564;DHT22;3823;53.586;10.040;2022-07-29T12:58:38;26.50;1.00
7564;DHT22;3823;53.586;10.040;2022-07-29T13:01:15;26.20;1.00
7564;DHT22;3823;53.586;10.040;2022-07-29T13:03:51;26.10;1.00
7564;DHT22;3823;53.586;10.040;2022-07-29T13:06:44;26.00;1.00
7564;DHT22;3823;53.586;10.040;2022-07-29T13:09:11;26.20;1.00
7564;DHT22;3823;53.586;10.040;2022-07-29T13:11:42;26.40;1.00
7564;DHT22;3823;53.586;10.040;2022-07-29T13:14:11;26.70;1.00
7564;DHT22;3823;53.586;10.040;2022-07-29T13:16:59;26.70;1.00
7564;DHT22;3823;53.586;10.040;2022-07-29T13:22:01;26.60;1.00
7564;DHT22;3823;53.586;10.040;2022-07-29T13:24:27;26.60;1.00
7564;DHT22;3823;53.586;10.040;2022-07-29T13:26:52;26.70;1.00
7564;DHT22;3823;53.586;10.040;2022-07-29T13:29:18;26.90;1.00
7564;DHT22;3823;53.586;10.040;2022-07-29T13:31:43;27.00;1.50
7564;DHT22;3823;53.586;10.040;2022-07-29T13:34:09;27.00;2.30
7564;DHT22;3823;53.586;10.040;2022-07-29T13:36:35;27.00;2.40
7564;DHT22;3823;53.586;10.040;2022-07-29T13:39:00;26.90;2.50
7564;DHT22;3823;53.586;10.040;2022-07-29T13:41:28;26.70;3.30
7564;DHT22;3823;53.586;10.040;2022-07-29T13:43:54;26.50;4.10
7564;DHT22;3823;53.586;10.040;2022-07-29T13:46:20;26.40;4.00
7564;DHT22;3823;53.586;10.040;2022-07-29T13:48:45;26.30;4.20
7564;DHT22;3823;53.586;10.040;2022-07-29T13:51:11;26.00;4.20
7564;DHT22;3823;53.586;10.040;2022-07-29T13:53:37;25.90;4.70
7564;DHT22;3823;53.586;10.040;2022-07-29T13:56:03;25.90;4.90
7564;DHT22;3823;53.586;10.040;2022-07-29T13:58:31;26.10;5.30
7564;DHT22;3823;53.586;10.040;2022-07-29T14:00:57;26.00;4.00
7564;DHT22;3823;53.586;10.040;2022-07-29T14:03:22;26.00;4.80
7564;DHT22;3823;53.586;10.040;2022-07-29T14:05:49;26.00;5.00
7564;DHT22;3823;53.586;10.040;2022-07-29T14:08:14;25.80;4.90
7564;DHT22;3823;53.586;10.040;2022-07-29T14:10:40;25.50;5.40
7564;DHT22;3823;53.586;10.040;2022-07-29T14:13:06;25.30;5.60
7564;DHT22;3823;53.586;10.040;2022-07-29T14:15:31;25.30;6.00
7564;DHT22;3823;53.586;10.040;2022-07-29T14:17:57;25.40;6.00
7564;DHT22;3823;53.586;10.040;2022-07-29T14:20:22;25.40;5.90
7564;DHT22;3823;53.586;10.040;2022-07-29T14:22:48;25.40;5.40
7564;DHT22;3823;53.586;10.040;2022-07-29T14:25:13;25.40;5.70
7564;DHT22;3823;53.586;10.040;2022-07-29T14:27:39;25.50;5.70
7564;DHT22;3823;53.586;10.040;2022-07-29T14:30:06;25.50;5.60
7564;DHT22;3823;53.586;10.040;2022-07-29T14:32:31;25.40;5.40
7564;DHT22;3823;53.586;10.040;2022-07-29T14:34:57;25.30;5.90
7564;DHT22;3823;53.586;10.040;2022-07-29T14:37:22;25.20;6.30
7564;DHT22;3823;53.586;10.040;2022-07-29T14:39:48;25.10;6.20
7564;DHT22;3823;53.586;10.040;2022-07-29T14:42:13;24.90;6.20
7564;DHT22;3823;53.586;10.040;2022-07-29T14:44:40;24.90;7.00
7564;DHT22;3823;53.586;10.040;2022-07-29T14:47:06;24.90;7.10
7564;DHT22;3823;53.586;10.040;2022-07-29T14:49:31;24.90;6.60
7564;DHT22;3823;53.586;10.040;2022-07-29T14:51:57;25.00;6.20
7564;DHT22;3823;53.586;10.040;2022-07-29T14:54:23;25.00;6.30
7564;DHT22;3823;53.586;10.040;2022-07-29T14:56:48;25.00;6.70
7564;DHT22;3823;53.586;10.040;2022-07-29T14:59:16;25.00;7.00
7564;DHT22;3823;53.586;10.040;2022-07-29T15:01:42;25.00;6.70
7564;DHT22;3823;53.586;10.040;2022-07-29T15:04:07;25.00;7.00
7564;DHT22;3823;53.586;10.040;2022-07-29T15:06:33;25.10;7.30
7564;DHT22;3823;53.586;10.040;2022-07-29T15:08:59;25.20;6.40
7564;DHT22;3823;53.586;10.040;2022-07-29T15:11:25;25.30;6.50
7564;DHT22;3823;53.586;10.040;2022-07-29T15:13:50;25.30;6.40
7564;DHT22;3823;53.586;10.040;2022-07-29T15:16:16;25.30;6.70
7564;DHT22;3823;53.586;10.040;2022-07-29T15:18:41;25.30;6.50
7564;DHT22;3823;53.586;10.040;2022-07-29T15:21:07;25.30;6.40
7564;DHT22;3823;53.586;10.040;2022-07-29T15:23:33;25.10;6.20
7564;DHT22;3823;53.586;10.040;2022-07-29T15:26:02;25.20;6.60
7564;DHT22;3823;53.586;10.040;2022-07-29T15:28:27;25.20;6.30
7564;DHT22;3823;53.586;10.040;2022-07-29T15:30:53;25.30;5.80
7564;DHT22;3823;53.586;10.040;2022-07-29T15:33:19;25.10;6.00
7564;DHT22;3823;53.586;10.040;2022-07-29T15:35:45;24.90;6.40
7564;DHT22;3823;53.586;10.040;2022-07-29T15:38:11;24.80;7.20
7564;DHT22;3823;53.586;10.040;2022-07-29T15:40:39;24.80;7.20
7564;DHT22;3823;53.586;10.040;2022-07-29T15:43:07;24.80;6.90
7564;DHT22;3823;53.586;10.040;2022-07-29T15:45:37;24.70;7.40
7564;DHT22;3823;53.586;10.040;2022-07-29T15:48:04;24.80;7.30
7564;DHT22;3823;53.586;10.040;2022-07-29T15:50:30;24.90;7.10
7564;DHT22;3823;53.586;10.040;2022-07-29T15:52:56;25.00;7.00
7564;DHT22;3823;53.586;10.040;2022-07-29T15:55:21;25.10;6.80
7564;DHT22;3823;53.586;10.040;2022-07-29T15:57:48;25.00;6.80
7564;DHT22;3823;53.586;10.040;2022-07-29T16:00:14;25.00;6.90
7564;DHT22;3823;53.586;10.040;2022-07-29T16:02:42;25.10;7.20
7564;DHT22;3823;53.586;10.040;2022-07-29T16:05:08;25.00;7.50
7564;DHT22;3823;53.586;10.040;2022-07-29T16:07:34;25.10;7.30
7564;DHT22;3823;53.586;10.040;2022-07-29T16:09:59;24.90;7.30
7564;DHT22;3823;53.586;10.040;2022-07-29T16:12:25;24.80;7.90
7564;DHT22;3823;53.586;10.040;2022-07-29T16:14:51;24.90;8.10
7564;DHT22;3823;53.586;10.040;2022-07-29T16:17:17;24.90;7.90
7564;DHT22;3823;53.586;10.040;2022-07-29T16:19:43;24.90;8.30
7564;DHT22;3823;53.586;10.040;2022-07-29T16:22:08;24.90;8.20
7564;DHT22;3823;53.586;10.040;2022-07-29T16:24:34;24.90;8.20
7564;DHT22;3823;53.586;10.040;2022-07-29T16:26:59;24.90;7.90
7564;DHT22;3823;53.586;10.040;2022-07-29T16:29:25;24.80;8.60
7564;DHT22;3823;53.586;10.040;2022-07-29T16:31:50;24.90;8.80
7564;DHT22;3823;53.586;10.040;2022-07-29T16:34:17;25.00;9.10
7564;DHT22;3823;53.586;10.040;2022-07-29T16:36:43;25.10;8.40
7564;DHT22;3823;53.586;10.040;2022-07-29T16:39:08;25.00;8.30
7564;DHT22;3823;53.586;10.040;2022-07-29T16:41:35;25.00;8.40
7564;DHT22;3823;53.586;10.040;2022-07-29T16:44:01;24.90;8.50
7564;DHT22;3823;53.586;10.040;2022-07-29T16:46:27;24.70;9.00
7564;DHT22;3823;53.586;10.040;2022-07-29T16:48:53;24.60;9.30
7564;DHT22;3823;53.586;10.040;2022-07-29T16:51:18;24.60;9.50
7564;DHT22;3823;53.586;10.040;2022-07-29T16:53:44;24.50;9.60